Time;durP1;ratioP1;P1;durP2;ratioP2;P2;SDS_P1;SDS_P2;PMS_P1;PMS_P2;Temp;Humidity;BMP_temperature;BMP_pressure;BME280_temperature;BME280_humidity;BME280_pressure;Samples;Min_cycle;Max_cycle;Signal;HPM_P1;HPM_P2
2022/04/04 00:01:51;;;;;;;6.67;4.37;;;;;;;;;;5002925;28;20620;-84
2022/04/04 00:04:55;;;;;;;8.27;4.90;;;;;;;;;;5014282;28;20533;-89
2022/04/04 00:07:59;;;;;;;6.30;4.47;;;;;;;;;;5014134;28;20537;-86
2022/04/04 00:11:03;;;;;;;7.10;4.87;;;;;;;;;;5002790;28;20619;-84
2022/04/04 00:14:07;;;;;;;7.63;4.97;;;;;;;;;;5002920;28;20537;-86
2022/04/04 00:17:11;;;;;;;5.00;4.40;;;;;;;;;;5001538;28;20604;-86
2022/04/04 00:20:16;;;;;;;6.33;4.30;;;;;;;;;;5002009;28;20632;-86
2022/04/04 00:23:20;;;;;;;6.10;4.43;;;;;;;;;;5013500;28;21066;-86
2022/04/04 00:26:24;;;;;;;6.60;4.10;;;;;;;;;;5002285;28;20537;-86
2022/04/04 00:29:30;;;;;;;6.50;4.60;;;;;;;;;;5002477;28;20545;-89
2022/04/04 00:32:36;;;;;;;8.40;4.53;;;;;;;;;;5002254;28;20541;-89
2022/04/04 00:35:40;;;;;;;7.30;4.43;;;;;;;;;;4991249;28;20597;-87
2022/04/04 00:38:44;;;;;;;6.43;4.30;;;;;;;;;;5002684;28;20865;-86
2022/04/04 00:41:48;;;;;;;5.33;4.37;;;;;;;;;;5013275;28;20632;-89
2022/04/04 00:44:52;;;;;;;5.23;4.10;;;;;;;;;;5002058;28;20608;-86
2022/04/04 00:47:56;;;;;;;5.63;4.27;;;;;;;;;;4990909;28;20530;-86
2022/04/04 00:51:01;;;;;;;5.60;4.60;;;;;;;;;;4991208;28;20643;-89
2022/04/04 00:54:06;;;;;;;5.43;4.10;;;;;;;;;;4990900;28;20549;-84
2022/04/04 00:57:10;;;;;;;7.33;4.77;;;;;;;;;;5001879;28;20600;-87
2022/04/04 01:00:15;;;;;;;6.90;4.33;;;;;;;;;;5001703;28;20635;-85
2022/04/04 01:03:19;;;;;;;5.13;3.83;;;;;;;;;;4990840;28;20541;-89
2022/04/04 01:06:23;;;;;;;5.67;4.07;;;;;;;;;;4990730;28;20545;-86
2022/04/04 01:09:28;;;;;;;6.37;4.10;;;;;;;;;;5012950;28;20541;-84
2022/04/04 01:12:32;;;;;;;5.47;3.77;;;;;;;;;;5001733;28;20557;-84
2022/04/04 01:15:37;;;;;;;6.07;3.90;;;;;;;;;;5001832;28;20589;-86
2022/04/04 01:18:41;;;;;;;4.60;3.87;;;;;;;;;;5013313;28;20854;-86
2022/04/04 01:21:45;;;;;;;5.17;4.10;;;;;;;;;;5012511;28;20620;-89
2022/04/04 01:24:50;;;;;;;6.93;3.70;;;;;;;;;;5001861;28;20537;-85
2022/04/04 01:27:55;;;;;;;5.83;3.90;;;;;;;;;;5014640;28;20596;-84
2022/04/04 01:30:59;;;;;;;5.77;3.77;;;;;;;;;;5005239;28;20666;-86
2022/04/04 01:34:03;;;;;;;4.33;3.80;;;;;;;;;;5005956;28;20545;-89
2022/04/04 01:37:08;;;;;;;5.50;3.97;;;;;;;;;;5005782;28;21072;-89
2022/04/04 01:40:12;;;;;;;5.00;3.90;;;;;;;;;;4994429;28;20970;-89
2022/04/04 01:43:17;;;;;;;8.87;3.80;;;;;;;;;;5016346;28;20556;-87
2022/04/04 01:46:24;;;;;;;6.83;4.33;;;;;;;;;;5016647;28;20533;-89
2022/04/04 01:49:29;;;;;;;5.53;3.70;;;;;;;;;;5005673;28;20549;-86
2022/04/04 01:52:33;;;;;;;4.87;3.77;;;;;;;;;;5004839;28;21075;-86
2022/04/04 01:55:37;;;;;;;5.53;3.97;;;;;;;;;;5005226;28;20592;-89
2022/04/04 01:58:41;;;;;;;6.00;3.70;;;;;;;;;;5015896;28;20604;-88
2022/04/04 02:01:46;;;;;;;3.87;3.47;;;;;;;;;;5004455;28;20632;-86
2022/04/04 02:04:50;;;;;;;4.83;3.47;;;;;;;;;;5015781;28;20592;-86
2022/04/04 02:07:54;;;;;;;5.95;3.70;;;;;;;;;;4993638;28;20955;-86
2022/04/04 02:10:59;;;;;;;4.50;3.47;;;;;;;;;;4993967;28;20216;-86
2022/04/04 02:14:03;;;;;;;6.50;3.92;;;;;;;;;;4993470;28;21146;-86
2022/04/04 02:17:07;;;;;;;5.43;3.67;;;;;;;;;;5004459;28;20194;-86
2022/04/04 02:20:11;;;;;;;4.63;3.47;;;;;;;;;;5015434;28;20627;-86
2022/04/04 02:23:20;;;;;;;6.23;3.50;;;;;;;;;;5004214;28;20536;-86
2022/04/04 02:26:24;;;;;;;4.80;3.67;;;;;;;;;;5004514;28;20861;-86
2022/04/04 02:29:28;;;;;;;6.50;3.77;;;;;;;;;;5015294;28;20604;-86
2022/04/04 02:32:32;;;;;;;5.20;3.70;;;;;;;;;;5015488;28;20600;-86
2022/04/04 02:35:36;;;;;;;6.45;4.22;;;;;;;;;;5003905;28;20652;-89
2022/04/04 02:38:40;;;;;;;6.90;4.07;;;;;;;;;;4992560;28;20178;-89
2022/04/04 02:41:44;;;;;;;4.95;3.83;;;;;;;;;;5004110;28;20612;-89
2022/04/04 02:44:50;;;;;;;6.38;3.67;;;;;;;;;;5004216;28;20185;-89
2022/04/04 02:47:54;;;;;;;6.83;3.97;;;;;;;;;;5004451;28;20189;-89
2022/04/04 02:50:58;;;;;;;6.10;3.88;;;;;;;;;;4992609;28;20635;-88
2022/04/04 02:54:02;;;;;;;4.57;3.28;;;;;;;;;;5003973;28;20177;-89
2022/04/04 02:57:06;;;;;;;4.17;3.37;;;;;;;;;;5003991;28;20521;-90
2022/04/04 03:00:11;;;;;;;6.93;4.03;;;;;;;;;;5004236;28;20624;-89
2022/04/04 03:03:15;;;;;;;5.18;3.50;;;;;;;;;;5003550;28;20193;-89
2022/04/04 03:06:20;;;;;;;5.47;3.83;;;;;;;;;;5003443;28;20190;-89
2022/04/04 03:09:24;;;;;;;6.07;3.65;;;;;;;;;;5014840;28;20537;-89
2022/04/04 03:12:28;;;;;;;4.95;3.67;;;;;;;;;;5003753;28;20177;-89
2022/04/04 03:15:34;;;;;;;4.63;3.63;;;;;;;;;;5014701;28;20205;-89
2022/04/04 03:18:38;;;;;;;5.05;3.92;;;;;;;;;;5003006;28;20608;-89
2022/04/04 03:21:44;;;;;;;5.40;3.67;;;;;;;;;;4992349;28;20213;-89
2022/04/04 03:24:48;;;;;;;7.05;4.65;;;;;;;;;;5003330;28;20182;-89
2022/04/04 03:27:53;;;;;;;8.10;5.07;;;;;;;;;;5003084;28;20178;-89
2022/04/04 03:30:57;;;;;;;6.35;4.20;;;;;;;;;;5003393;28;20616;-89
2022/04/04 03:34:01;;;;;;;7.07;4.20;;;;;;;;;;5014308;28;20201;-89
2022/04/04 03:37:06;;;;;;;6.50;3.92;;;;;;;;;;5014000;28;20220;-89
2022/04/04 03:40:14;;;;;;;5.63;4.10;;;;;;;;;;5014542;28;20214;-86
2022/04/04 03:43:18;;;;;;;5.60;4.25;;;;;;;;;;4991612;28;20664;-86
2022/04/04 03:46:22;;;;;;;7.07;4.22;;;;;;;;;;4992014;28;20181;-89
2022/04/04 03:49:26;;;;;;;6.50;4.03;;;;;;;;;;5002978;28;20193;-89
2022/04/04 03:52:30;;;;;;;6.22;4.15;;;;;;;;;;5013986;28;20177;-86
2022/04/04 03:55:38;;;;;;;6.10;3.72;;;;;;;;;;4991546;28;20209;-86
2022/04/04 03:58:42;;;;;;;7.07;4.20;;;;;;;;;;5002576;28;20173;-89
2022/04/04 04:01:47;;;;;;;5.25;4.13;;;;;;;;;;5002632;28;20208;-86
2022/04/04 04:04:51;;;;;;;6.13;4.28;;;;;;;;;;5013967;28;20518;-85
2022/04/04 04:07:55;;;;;;;4.93;3.28;;;;;;;;;;4991813;28;20174;-89
2022/04/04 04:11:00;;;;;;;6.53;4.00;;;;;;;;;;4991586;28;20213;-84
2022/04/04 04:14:04;;;;;;;4.72;3.90;;;;;;;;;;5002434;28;20518;-84
2022/04/04 04:17:08;;;;;;;5.20;3.75;;;;;;;;;;5002372;28;20213;-84
2022/04/04 04:20:33;;;;;;;6.10;4.20;;;;;;;;;;5013975;28;20217;-84
2022/04/04 04:23:39;;;;;;;5.78;4.13;;;;;;;;;;5002598;28;20178;-84
2022/04/04 04:26:43;;;;;;;5.05;3.67;;;;;;;;;;5003258;28;20178;-84
2022/04/04 04:29:47;;;;;;;4.95;3.53;;;;;;;;;;5002426;28;20201;-84
2022/04/04 04:32:57;;;;;;;5.40;3.60;;;;;;;;;;5003089;28;20194;-89
2022/04/04 04:36:01;;;;;;;4.60;3.58;;;;;;;;;;5002904;28;20214;-86
2022/04/04 04:39:07;;;;;;;5.40;3.50;;;;;;;;;;5002851;28;20513;-87
2022/04/04 04:42:11;;;;;;;4.38;3.25;;;;;;;;;;5002732;28;20173;-84
2022/04/04 04:45:15;;;;;;;6.28;3.67;;;;;;;;;;5002622;28;20181;-88
2022/04/04 04:48:20;;;;;;;5.95;3.83;;;;;;;;;;5002349;28;20177;-88
2022/04/04 04:51:24;;;;;;;6.63;3.92;;;;;;;;;;5001676;28;20228;-89
2022/04/04 04:54:30;;;;;;;5.50;3.47;;;;;;;;;;5002220;28;20537;-90
2022/04/04 04:57:34;;;;;;;4.60;3.50;;;;;;;;;;5001745;28;20569;-86
2022/04/04 05:00:40;;;;;;;6.63;3.83;;;;;;;;;;5001870;28;20692;-86
2022/04/04 05:03:45;;;;;;;7.05;4.20;;;;;;;;;;5002005;28;20182;-84
2022/04/04 05:06:49;;;;;;;4.55;3.63;;;;;;;;;;5002319;28;20177;-85
2022/04/04 05:09:53;;;;;;;5.72;3.78;;;;;;;;;;4991900;28;20173;-85
2022/04/04 05:12:58;;;;;;;6.45;3.90;;;;;;;;;;4991209;28;20178;-85
2022/04/04 05:16:07;;;;;;;4.35;3.45;;;;;;;;;;5013634;28;20680;-85
2022/04/04 05:19:12;;;;;;;5.18;3.90;;;;;;;;;;5002268;28;20518;-85
2022/04/04 05:22:16;;;;;;;5.50;3.60;;;;;;;;;;4991327;28;20186;-85
2022/04/04 05:25:20;;;;;;;4.37;3.43;;;;;;;;;;4991048;28;20616;-85
2022/04/04 05:28:25;;;;;;;5.97;4.27;;;;;;;;;;5001944;28;20541;-85
2022/04/04 05:31:30;;;;;;;6.20;4.53;;;;;;;;;;5001784;28;21004;-85
2022/04/04 05:34:34;;;;;;;8.07;4.90;;;;;;;;;;5001740;28;20538;-83
2022/04/04 05:37:38;;;;;;;8.33;5.03;;;;;;;;;;4990801;28;20651;-83
2022/04/04 05:40:43;;;;;;;8.43;5.57;;;;;;;;;;5013102;28;20631;-84
2022/04/04 05:43:47;;;;;;;8.90;6.00;;;;;;;;;;5001294;28;20599;-84
2022/04/04 05:46:51;;;;;;;11.80;6.67;;;;;;;;;;5001326;28;20600;-86
2022/04/04 05:49:56;;;;;;;20.00;12.77;;;;;;;;;;4990146;28;20608;-84
2022/04/04 05:53:00;;;;;;;18.87;10.83;;;;;;;;;;5001276;28;20563;-87
2022/04/04 05:56:05;;;;;;;17.03;9.33;;;;;;;;;;5001696;28;20600;-86
2022/04/04 05:59:09;;;;;;;14.63;8.83;;;;;;;;;;4990539;28;20541;-84
2022/04/04 06:02:13;;;;;;;15.73;10.53;;;;;;;;;;5013472;28;20541;-85
2022/04/04 06:05:17;;;;;;;16.37;12.27;;;;;;;;;;5002383;28;20540;-85
2022/04/04 06:08:22;;;;;;;15.30;9.33;;;;;;;;;;5001566;28;21122;-83
2022/04/04 06:11:26;;;;;;;45.67;27.57;;;;;;;;;;5013101;28;20628;-83
2022/04/04 06:14:30;;;;;;;48.73;29.20;;;;;;;;;;5014150;28;20552;-85
2022/04/04 06:17:34;;;;;;;32.63;22.00;;;;;;;;;;5016426;28;20595;-84
2022/04/04 06:20:39;;;;;;;47.80;27.93;;;;;;;;;;4994205;28;20623;-84
2022/04/04 06:23:43;;;;;;;45.53;26.83;;;;;;;;;;4994026;28;20559;-83
2022/04/04 06:26:48;;;;;;;28.93;19.40;;;;;;;;;;5004866;28;20904;-85
2022/04/04 06:29:52;;;;;;;20.53;13.40;;;;;;;;;;5004932;28;20548;-83
2022/04/04 06:32:57;;;;;;;16.07;13.63;;;;;;;;;;5004706;28;20547;-86
2022/04/04 06:36:01;;;;;;;6.87;5.43;;;;;;;;;;5016071;28;20941;-83
2022/04/04 06:39:05;;;;;;;27.93;19.47;;;;;;;;;;5004765;28;20600;-83
2022/04/04 06:42:11;;;;;;;12.63;11.13;;;;;;;;;;4993578;28;20592;-83
2022/04/04 06:45:17;;;;;;;18.83;14.33;;;;;;;;;;5004544;28;20541;-83
2022/04/04 06:48:22;;;;;;;17.20;15.10;;;;;;;;;;5004350;28;20882;-83
2022/04/04 06:51:27;;;;;;;7.67;5.00;;;;;;;;;;5062680;23;20681;-86
2022/04/04 06:54:31;;;;;;;42.87;31.70;;;;;;;;;;4984727;28;20900;-85
2022/04/04 06:57:35;;;;;;;16.50;11.73;;;;;;;;;;4985049;28;20624;-86
2022/04/04 07:00:41;;;;;;;31.47;16.40;;;;;;;;;;4985922;28;20633;-86
2022/04/04 07:03:46;;;;;;;28.37;14.50;;;;;;;;;;4973658;28;20905;-86
2022/04/04 07:06:50;;;;;;;41.13;26.93;;;;;;;;;;4973600;28;20534;-86
2022/04/04 07:09:56;;;;;;;18.40;13.07;;;;;;;;;;4974131;28;20878;-86
2022/04/04 07:13:01;;;;;;;14.90;10.13;;;;;;;;;;4985821;28;20608;-86
2022/04/04 07:16:05;;;;;;;17.40;11.50;;;;;;;;;;4985153;28;20597;-85
2022/04/04 07:19:14;;;;;;;13.83;8.30;;;;;;;;;;4984748;28;20542;-85
2022/04/04 07:22:18;;;;;;;18.43;13.20;;;;;;;;;;4984758;28;20621;-85
2022/04/04 07:25:22;;;;;;;14.07;9.03;;;;;;;;;;4983867;28;20601;-86
2022/04/04 07:28:27;;;;;;;45.90;33.30;;;;;;;;;;4995304;28;21151;-85
2022/04/04 07:31:31;;;;;;;40.40;26.40;;;;;;;;;;4984003;28;20625;-85
2022/04/04 07:34:36;;;;;;;134.07;57.87;;;;;;;;;;4973064;28;20929;-86
2022/04/04 07:37:42;;;;;;;43.43;21.87;;;;;;;;;;4984434;28;20608;-85
2022/04/04 07:40:47;;;;;;;26.17;11.43;;;;;;;;;;4972864;28;20214;-85
2022/04/04 07:43:51;;;;;;;14.40;10.60;;;;;;;;;;4973120;28;20538;-85
2022/04/04 07:46:55;;;;;;;66.20;32.47;;;;;;;;;;4972679;28;20519;-85
2022/04/04 07:49:59;;;;;;;66.30;29.23;;;;;;;;;;4972806;28;20197;-85
2022/04/04 07:53:03;;;;;;;23.80;12.43;;;;;;;;;;4983629;28;20178;-85
2022/04/04 07:56:07;;;;;;;19.60;13.67;;;;;;;;;;4972819;28;20178;-85
2022/04/04 07:59:12;;;;;;;12.17;8.83;;;;;;;;;;4972261;28;20194;-85
2022/04/04 08:02:16;;;;;;;45.53;40.83;;;;;;;;;;4978769;28;20241;-85
2022/04/04 08:05:21;;;;;;;9.43;8.40;;;;;;;;;;4991906;28;20185;-85
2022/04/04 08:08:26;;;;;;;22.73;17.77;;;;;;;;;;4991734;28;20193;-84
2022/04/04 08:11:30;;;;;;;151.20;60.57;;;;;;;;;;5002786;28;20220;-84
2022/04/04 08:14:36;;;;;;;11.83;7.40;;;;;;;;;;4981399;28;20244;-84
2022/04/04 08:17:40;;;;;;;5.53;3.70;;;;;;;;;;4972865;28;20697;-84
2022/04/04 08:20:44;;;;;;;8.53;6.67;;;;;;;;;;5013274;28;20217;-84
2022/04/04 08:23:48;;;;;;;26.97;18.27;;;;;;;;;;5013548;28;20189;-84
2022/04/04 08:26:52;;;;;;;4.70;4.30;;;;;;;;;;4991549;28;20181;-84
2022/04/04 08:29:56;;;;;;;4.17;3.13;;;;;;;;;;4991078;28;20194;-83
2022/04/04 08:33:01;;;;;;;3.57;2.70;;;;;;;;;;5013454;28;20199;-84
2022/04/04 08:36:06;;;;;;;3.43;2.77;;;;;;;;;;4975574;28;20198;-84
2022/04/04 08:39:10;;;;;;;4.37;2.40;;;;;;;;;;4973362;28;20174;-84
2022/04/04 08:42:16;;;;;;;3.20;2.60;;;;;;;;;;4972689;28;20218;-84
2022/04/04 08:45:20;;;;;;;4.93;2.40;;;;;;;;;;4984566;28;20613;-84
2022/04/04 08:48:25;;;;;;;4.97;2.90;;;;;;;;;;5012796;28;20182;-84
2022/04/04 08:51:30;;;;;;;3.30;2.90;;;;;;;;;;4993359;28;20227;-84
2022/04/04 08:54:34;;;;;;;4.53;2.43;;;;;;;;;;5004233;28;20181;-84
2022/04/04 08:57:38;;;;;;;4.07;2.77;;;;;;;;;;5004049;28;20553;-85
2022/04/04 09:00:42;;;;;;;3.00;2.10;;;;;;;;;;4993716;28;20217;-84
2022/04/04 09:03:52;;;;;;;3.30;2.40;;;;;;;;;;5003513;28;20628;-84
2022/04/04 09:06:57;;;;;;;4.50;2.40;;;;;;;;;;5003480;28;20185;-85
2022/04/04 09:10:01;;;;;;;3.20;2.00;;;;;;;;;;5004419;28;20182;-85
2022/04/04 09:13:15;;;;;;;3.57;2.30;;;;;;;;;;5003409;28;20194;-85
2022/04/04 09:16:19;;;;;;;3.03;2.50;;;;;;;;;;5002722;28;20181;-84
2022/04/04 09:19:29;;;;;;;10.13;4.00;;;;;;;;;;4994958;28;20186;-84
2022/04/04 09:22:32;;;;;;;7.23;6.23;;;;;;;;;;5002588;28;20212;-85
2022/04/04 09:25:37;;;;;;;3.93;3.53;;;;;;;;;;5004994;28;20189;-84
2022/04/04 09:28:44;;;;;;;38.63;25.60;;;;;;;;;;4981341;28;20194;-84
2022/04/04 09:32:09;;;;;;;6.93;5.70;;;;;;;;;;4995558;28;20220;-84
2022/04/04 09:35:15;;;;;;;4.07;3.03;;;;;;;;;;4992518;28;20202;-84
2022/04/04 09:38:20;;;;;;;8.23;5.17;;;;;;;;;;5002416;28;20217;-84
2022/04/04 09:41:28;;;;;;;4.67;3.73;;;;;;;;;;4984805;28;20222;-85
2022/04/04 09:44:32;;;;;;;26.13;23.60;;;;;;;;;;5006801;28;20198;-85
2022/04/04 09:47:48;;;;;;;11.53;7.53;;;;;;;;;;4976524;28;20193;-85
2022/04/04 09:50:52;;;;;;;7.13;5.10;;;;;;;;;;4993186;28;20229;-85
2022/04/04 09:54:03;;;;;;;4.70;3.33;;;;;;;;;;5008554;28;20178;-85
2022/04/04 09:57:13;;;;;;;10.93;8.23;;;;;;;;;;5006813;28;20194;-85
2022/04/04 10:00:19;;;;;;;8.50;6.30;;;;;;;;;;4989119;28;20198;-85
2022/04/04 10:03:23;;;;;;;3.47;2.80;;;;;;;;;;4985261;28;20198;-85
2022/04/04 10:06:30;;;;;;;9.03;6.63;;;;;;;;;;4991289;28;20186;-86
2022/04/04 10:09:35;;;;;;;9.20;7.33;;;;;;;;;;5016393;28;20174;-86
2022/04/04 10:12:40;;;;;;;5.50;3.73;;;;;;;;;;4993638;28;20213;-86
2022/04/04 10:15:44;;;;;;;9.17;6.07;;;;;;;;;;4993358;28;20227;-86
2022/04/04 10:18:50;;;;;;;8.57;6.60;;;;;;;;;;4993390;28;20679;-86
2022/04/04 10:21:54;;;;;;;5.37;3.80;;;;;;;;;;5004635;28;20217;-86
2022/04/04 10:24:59;;;;;;;4.67;3.13;;;;;;;;;;5005052;28;20189;-86
2022/04/04 10:28:04;;;;;;;4.73;3.10;;;;;;;;;;5004744;28;20177;-87
2022/04/04 10:31:19;;;;;;;4.50;3.20;;;;;;;;;;4993001;28;20217;-87
2022/04/04 10:34:25;;;;;;;3.03;2.53;;;;;;;;;;5003948;28;20544;-87
2022/04/04 10:37:30;;;;;;;3.60;3.10;;;;;;;;;;4993232;28;20664;-86
2022/04/04 10:40:36;;;;;;;6.40;3.47;;;;;;;;;;5004375;28;20182;-86
2022/04/04 10:43:45;;;;;;;4.60;3.30;;;;;;;;;;4984613;28;20206;-87
2022/04/04 10:46:50;;;;;;;4.67;3.53;;;;;;;;;;4992222;28;20190;-87
2022/04/04 10:50:15;;;;;;;4.70;3.07;;;;;;;;;;4993073;28;20514;-87
2022/04/04 10:53:37;;;;;;;3.80;3.20;;;;;;;;;;5003284;28;20194;-86
2022/04/04 10:56:44;;;;;;;6.53;3.40;;;;;;;;;;5002309;28;20190;-87
2022/04/04 10:59:56;;;;;;;3.77;3.40;;;;;;;;;;4986353;28;20189;-87
2022/04/04 11:03:01;;;;;;;5.83;3.60;;;;;;;;;;5003836;28;20189;-87
2022/04/04 11:09:32;;;;;;;5.90;3.27;;;;;;;;;;4993420;28;20186;-87
2022/04/04 11:12:56;;;;;;;6.27;3.73;;;;;;;;;;4990184;28;20558;-87
2022/04/04 11:16:02;;;;;;;4.37;3.30;;;;;;;;;;4983479;28;20190;-87
2022/04/04 11:19:10;;;;;;;4.57;3.70;;;;;;;;;;5001031;28;20235;-87
2022/04/04 11:22:20;;;;;;;4.30;3.37;;;;;;;;;;4992295;28;20561;-87
2022/04/04 11:25:33;;;;;;;4.00;3.60;;;;;;;;;;4992125;28;20625;-87
2022/04/04 11:28:42;;;;;;;5.43;3.73;;;;;;;;;;4985477;28;20198;-87
2022/04/04 11:31:51;;;;;;;5.20;4.20;;;;;;;;;;5014752;28;20554;-87
2022/04/04 11:34:59;;;;;;;5.10;4.00;;;;;;;;;;4992417;28;20625;-87
2022/04/04 11:38:11;;;;;;;6.30;4.17;;;;;;;;;;4999890;28;20214;-87
2022/04/04 11:41:16;;;;;;;5.07;4.20;;;;;;;;;;4983823;28;20218;-87
2022/04/04 11:44:25;;;;;;;5.30;4.40;;;;;;;;;;4996638;28;20181;-87
2022/04/04 11:47:29;;;;;;;5.97;4.90;;;;;;;;;;4990854;28;20193;-88
2022/04/04 11:50:35;;;;;;;5.33;4.37;;;;;;;;;;5002497;28;20193;-87
2022/04/04 11:53:39;;;;;;;5.70;4.60;;;;;;;;;;4994475;28;20193;-87
2022/04/04 11:56:44;;;;;;;7.23;5.10;;;;;;;;;;4989918;28;20189;-87
2022/04/04 11:59:49;;;;;;;5.53;4.70;;;;;;;;;;4991925;28;20213;-87
2022/04/04 12:02:54;;;;;;;6.77;5.07;;;;;;;;;;4990909;28;20189;-88
2022/04/04 12:06:05;;;;;;;6.20;5.03;;;;;;;;;;4983069;28;20198;-90
2022/04/04 12:09:13;;;;;;;8.13;5.27;;;;;;;;;;5013226;28;20186;-89
2022/04/04 12:12:17;;;;;;;5.47;4.60;;;;;;;;;;4972361;28;20225;-89
2022/04/04 12:15:30;;;;;;;5.90;4.80;;;;;;;;;;4972533;28;20186;-89
2022/04/04 12:18:34;;;;;;;5.97;4.80;;;;;;;;;;4975460;28;20218;-89
2022/04/04 12:21:39;;;;;;;7.83;6.40;;;;;;;;;;4983194;28;20225;-89
2022/04/04 12:24:55;;;;;;;5.57;5.07;;;;;;;;;;4971902;28;20187;-89
2022/04/04 12:28:01;;;;;;;7.00;5.60;;;;;;;;;;4980660;28;20229;-89
2022/04/04 12:31:14;;;;;;;13.83;11.27;;;;;;;;;;4982774;28;20222;-89
2022/04/04 12:34:22;;;;;;;9.80;8.80;;;;;;;;;;4993488;28;20201;-87
2022/04/04 12:37:37;;;;;;;7.07;5.50;;;;;;;;;;4994311;28;20178;-87
2022/04/04 12:40:41;;;;;;;6.53;5.43;;;;;;;;;;4982774;28;20685;-87
2022/04/04 12:43:58;;;;;;;6.13;5.50;;;;;;;;;;4993944;28;20305;-86
2022/04/04 12:47:05;;;;;;;5.43;4.60;;;;;;;;;;4982933;28;20183;-87
2022/04/04 12:50:13;;;;;;;6.23;5.27;;;;;;;;;;4982428;28;20625;-87
2022/04/04 12:53:18;;;;;;;7.53;5.13;;;;;;;;;;5024881;23;20241;-83
2022/04/04 12:56:23;;;;;;;7.10;5.03;;;;;;;;;;5002230;28;20174;-83
2022/04/04 12:59:28;;;;;;;5.30;4.80;;;;;;;;;;5002164;28;20221;-83
2022/04/04 13:02:34;;;;;;;6.70;5.27;;;;;;;;;;4979499;28;20222;-83
2022/04/04 13:05:46;;;;;;;5.67;4.50;;;;;;;;;;4994300;28;20191;-83
2022/04/04 13:08:57;;;;;;;5.93;4.90;;;;;;;;;;4982784;28;20178;-83
2022/04/04 13:12:02;;;;;;;6.60;4.87;;;;;;;;;;4982108;28;20217;-83
2022/04/04 13:15:06;;;;;;;5.50;4.50;;;;;;;;;;4982441;28;20198;-83
2022/04/04 13:18:10;;;;;;;6.83;5.93;;;;;;;;;;4982773;28;20218;-84
2022/04/04 13:21:14;;;;;;;6.23;5.50;;;;;;;;;;4980594;28;20178;-84
2022/04/04 13:24:20;;;;;;;5.73;5.10;;;;;;;;;;4984736;28;20668;-83
2022/04/04 13:27:24;;;;;;;6.20;5.00;;;;;;;;;;4986160;28;20202;-84
2022/04/04 13:30:29;;;;;;;5.30;4.70;;;;;;;;;;4975104;28;20174;-82
2022/04/04 13:33:33;;;;;;;5.87;5.20;;;;;;;;;;4985988;28;20182;-87
2022/04/04 13:36:37;;;;;;;5.83;5.03;;;;;;;;;;4985795;28;20526;-89
2022/04/04 13:39:42;;;;;;;6.47;5.30;;;;;;;;;;4985942;28;20210;-87
2022/04/04 13:42:46;;;;;;;7.73;5.03;;;;;;;;;;4985953;28;20213;-88
2022/04/04 13:45:50;;;;;;;6.77;5.73;;;;;;;;;;4975055;28;20183;-87
2022/04/04 13:48:55;;;;;;;6.53;5.27;;;;;;;;;;4986008;28;20179;-87
2022/04/04 13:51:59;;;;;;;6.63;5.93;;;;;;;;;;4985487;28;20225;-85
2022/04/04 13:55:04;;;;;;;6.60;5.67;;;;;;;;;;4996797;28;20182;-87
2022/04/04 13:58:07;;;;;;;6.50;5.37;;;;;;;;;;4985324;28;20514;-87
2022/04/04 14:01:17;;;;;;;8.13;5.67;;;;;;;;;;4985411;28;20183;-87
2022/04/04 14:04:21;;;;;;;7.33;5.17;;;;;;;;;;4985787;28;20194;-87
2022/04/04 14:07:25;;;;;;;5.70;5.13;;;;;;;;;;4985203;28;20194;-85
2022/04/04 14:10:29;;;;;;;6.73;5.47;;;;;;;;;;4985290;28;20179;-85
2022/04/04 14:13:38;;;;;;;7.03;5.57;;;;;;;;;;4974246;28;20190;-84
2022/04/04 14:16:42;;;;;;;7.40;5.70;;;;;;;;;;4976194;28;20182;-84
2022/04/04 14:19:46;;;;;;;6.93;5.30;;;;;;;;;;4976919;28;20546;-84
2022/04/04 14:22:50;;;;;;;7.73;6.40;;;;;;;;;;4986022;28;20222;-85
2022/04/04 14:25:55;;;;;;;6.73;5.60;;;;;;;;;;4985471;28;20178;-85
2022/04/04 14:28:59;;;;;;;6.83;5.10;;;;;;;;;;4974346;28;20186;-85
2022/04/04 14:32:03;;;;;;;5.80;5.20;;;;;;;;;;4985559;28;20222;-84
2022/04/04 14:35:08;;;;;;;6.90;5.73;;;;;;;;;;4996630;28;20186;-84
2022/04/04 14:38:12;;;;;;;7.60;6.27;;;;;;;;;;4986623;28;20514;-84
2022/04/04 14:41:18;;;;;;;10.57;6.03;;;;;;;;;;4985793;28;20190;-85
2022/04/04 14:44:21;;;;;;;7.80;6.30;;;;;;;;;;4986628;28;20174;-86
2022/04/04 14:47:25;;;;;;;6.93;5.90;;;;;;;;;;4996642;28;20178;-85
2022/04/04 14:50:30;;;;;;;8.50;6.43;;;;;;;;;;4986950;28;20530;-84
2022/04/04 14:53:34;;;;;;;13.07;9.10;;;;;;;;;;4988094;28;20213;-84
2022/04/04 14:57:01;;;;;;;9.67;6.30;;;;;;;;;;5000692;28;20178;-84
2022/04/04 15:00:39;;;;;;;8.23;5.63;;;;;;;;;;4988481;28;20218;-85
2022/04/04 15:03:43;;;;;;;9.50;6.97;;;;;;;;;;4996335;28;20629;-86
2022/04/04 15:06:47;;;;;;;7.73;6.03;;;;;;;;;;4973419;28;20190;-89
2022/04/04 15:09:51;;;;;;;7.73;5.73;;;;;;;;;;4996939;28;20198;-84
2022/04/04 15:12:55;;;;;;;7.03;6.07;;;;;;;;;;4987529;28;20213;-88
2022/04/04 15:16:00;;;;;;;10.10;6.63;;;;;;;;;;4976910;28;20186;-85
2022/04/04 15:19:04;;;;;;;6.63;5.67;;;;;;;;;;4973932;28;20210;-87
2022/04/04 15:22:08;;;;;;;7.37;6.57;;;;;;;;;;4995478;28;20689;-88
2022/04/04 15:25:13;;;;;;;10.57;6.40;;;;;;;;;;4974157;28;20178;-86
2022/04/04 15:28:17;;;;;;;7.87;6.63;;;;;;;;;;4985485;28;20183;-85
2022/04/04 15:31:22;;;;;;;9.03;6.57;;;;;;;;;;4973632;28;20178;-87
2022/04/04 15:34:26;;;;;;;10.70;8.47;;;;;;;;;;4984945;28;20197;-87
2022/04/04 15:37:30;;;;;;;10.07;6.43;;;;;;;;;;4972849;28;20206;-87
2022/04/04 15:40:34;;;;;;;10.07;7.40;;;;;;;;;;4973508;28;20206;-86
2022/04/04 15:43:39;;;;;;;10.03;6.20;;;;;;;;;;4972616;28;20186;-84
2022/04/04 15:46:44;;;;;;;8.50;6.40;;;;;;;;;;4984292;28;20182;-84
2022/04/04 15:49:48;;;;;;;7.90;6.30;;;;;;;;;;4972952;28;20577;-86
2022/04/04 15:52:52;;;;;;;8.00;6.73;;;;;;;;;;4995268;28;20237;-85
2022/04/04 15:55:56;;;;;;;7.77;6.83;;;;;;;;;;4983679;28;20178;-86
2022/04/04 15:59:01;;;;;;;8.47;6.57;;;;;;;;;;4994847;28;20214;-84
2022/04/04 16:02:05;;;;;;;10.10;6.53;;;;;;;;;;4983691;28;20213;-85
2022/04/04 16:05:10;;;;;;;7.97;6.30;;;;;;;;;;4972640;28;20174;-87
2022/04/04 16:08:14;;;;;;;7.77;6.43;;;;;;;;;;4984275;28;20178;-85
2022/04/04 16:11:20;;;;;;;11.83;6.97;;;;;;;;;;4985963;28;20178;-85
2022/04/04 16:14:24;;;;;;;8.70;7.47;;;;;;;;;;4975316;28;20182;-88
2022/04/04 16:17:28;;;;;;;11.13;9.50;;;;;;;;;;4976876;28;20190;-85
2022/04/04 16:20:33;;;;;;;11.17;7.80;;;;;;;;;;4983265;28;20530;-86
2022/04/04 16:23:37;;;;;;;7.33;6.17;;;;;;;;;;4972672;28;20182;-88
2022/04/04 16:26:43;;;;;;;7.60;6.70;;;;;;;;;;4994197;28;20182;-83
2022/04/04 16:29:48;;;;;;;8.90;6.57;;;;;;;;;;4971916;28;20614;-84
2022/04/04 16:32:52;;;;;;;7.70;6.00;;;;;;;;;;4971716;28;20218;-85
2022/04/04 16:35:58;;;;;;;6.80;5.80;;;;;;;;;;4972281;28;20186;-85
2022/04/04 16:39:06;;;;;;;8.53;6.10;;;;;;;;;;4982739;28;20186;-85
2022/04/04 16:42:11;;;;;;;8.23;6.40;;;;;;;;;;4971563;28;20688;-85
2022/04/04 16:45:15;;;;;;;8.20;6.07;;;;;;;;;;4982614;28;20186;-85
2022/04/04 16:48:19;;;;;;;7.37;5.67;;;;;;;;;;4982717;28;20178;-85
2022/04/04 16:51:23;;;;;;;7.23;5.90;;;;;;;;;;4971069;28;20186;-86
2022/04/04 16:54:27;;;;;;;6.97;6.23;;;;;;;;;;4993600;28;20178;-86
2022/04/04 16:57:32;;;;;;;8.07;6.30;;;;;;;;;;4970775;28;20182;-86
2022/04/04 17:00:36;;;;;;;9.40;6.23;;;;;;;;;;4982581;28;20202;-85
2022/04/04 17:03:40;;;;;;;9.13;6.20;;;;;;;;;;4982221;28;20178;-85
2022/04/04 17:06:45;;;;;;;8.37;6.23;;;;;;;;;;4982319;28;20266;-86
2022/04/04 17:09:49;;;;;;;8.90;6.17;;;;;;;;;;4983522;28;20190;-85
2022/04/04 17:12:54;;;;;;;8.63;6.60;;;;;;;;;;4986229;28;20221;-85
2022/04/04 17:15:58;;;;;;;9.90;7.63;;;;;;;;;;4971872;28;20174;-85
2022/04/04 17:19:02;;;;;;;8.47;6.40;;;;;;;;;;4971177;28;20178;-85
2022/04/04 17:22:06;;;;;;;8.17;6.87;;;;;;;;;;4993018;28;20214;-85
2022/04/04 17:25:11;;;;;;;10.13;7.30;;;;;;;;;;4993617;28;20194;-85
2022/04/04 17:28:16;;;;;;;8.50;7.40;;;;;;;;;;4982086;28;20178;-85
2022/04/04 17:31:20;;;;;;;14.10;10.60;;;;;;;;;;4970908;28;20198;-86
2022/04/04 17:34:24;;;;;;;13.60;9.87;;;;;;;;;;4982622;28;20178;-85
2022/04/04 17:37:28;;;;;;;9.07;7.07;;;;;;;;;;4993259;28;20182;-85
2022/04/04 17:40:32;;;;;;;7.77;6.60;;;;;;;;;;4981689;28;20225;-85
2022/04/04 17:43:36;;;;;;;8.97;7.07;;;;;;;;;;4982012;28;20182;-85
2022/04/04 17:46:44;;;;;;;9.07;6.60;;;;;;;;;;4982223;28;20186;-86
2022/04/04 17:49:49;;;;;;;7.33;6.53;;;;;;;;;;4982071;28;20178;-85
2022/04/04 17:52:53;;;;;;;7.20;5.93;;;;;;;;;;4970685;28;20229;-86
2022/04/04 17:55:57;;;;;;;8.30;6.43;;;;;;;;;;4970980;28;20182;-86
2022/04/04 17:59:01;;;;;;;8.27;6.33;;;;;;;;;;4970666;28;20186;-85
2022/04/04 18:02:07;;;;;;;9.90;6.83;;;;;;;;;;4992875;28;20222;-85
2022/04/04 18:05:11;;;;;;;7.20;5.97;;;;;;;;;;4981806;28;20178;-86
2022/04/04 18:08:15;;;;;;;7.33;6.10;;;;;;;;;;4986177;28;20174;-86
2022/04/04 18:11:19;;;;;;;7.83;6.23;;;;;;;;;;4974899;28;20182;-85
2022/04/04 18:14:25;;;;;;;12.03;7.10;;;;;;;;;;4985585;28;20657;-85
2022/04/04 18:17:29;;;;;;;12.97;10.13;;;;;;;;;;4974290;28;20178;-85
2022/04/04 18:20:33;;;;;;;8.80;6.83;;;;;;;;;;4996511;28;20210;-85
2022/04/04 18:23:37;;;;;;;7.43;6.17;;;;;;;;;;4975362;28;20177;-85
2022/04/04 18:26:41;;;;;;;10.07;6.87;;;;;;;;;;4974400;28;20182;-85
2022/04/04 18:29:46;;;;;;;8.60;7.03;;;;;;;;;;4974006;28;20197;-85